CSAV Loncomilla — VRFB3 — position and weather

sailwx.info

Track history (hours):
 
Tides and Currents Weather Stations Pressure Air Temp Water Temp Dewpoint Dewpoint Depression Visibility Wind Speed Wind Dir Waves Ship Positions

CSAV Loncomilla

Last reported at 2016-Dec-01 05:29 UTC. Time now 2016-Dec-03 11:43 UTC.
Position S 22°19' E 166°04'.

Length 261 m; draft 10.3 m.

Type: Ship (hazmat cat A). MMSI: 477207400.

Date/timePositionNaut miles runAvg speedWind from/ knotsBaromVisibWave heightAir tempDewpointWater temp
2016-Dec-01 05:29S 22°19' E 166°04'1212.7
2016-Dec-01 04:33S 22°20' E 166°17'9 9.4
2016-Dec-01 03:34S 22°16' E 166°26'0 0.2
2016-Dec-01 02:31S 22°16' E 166°26'0 0.0
2016-Dec-01 01:31S 22°16' E 166°26'0 0.0
2016-Dec-01 00:31S 22°16' E 166°26'0 0.0
2016-Nov-30 23:31S 22°16' E 166°26'0 0.0
2016-Nov-30 22:31S 22°16' E 166°26'0 0.0
2016-Nov-30 21:31S 22°16' E 166°26'0 0.0
2016-Nov-30 20:31S 22°16' E 166°26'0 0.0
2016-Nov-30 19:31S 22°16' E 166°26'0 0.0
2016-Nov-30 18:31S 22°16' E 166°26'8 7.9
2016-Nov-30 17:33S 22°17' E 166°18'1110.9
2016-Nov-30 16:33S 22°27' E 166°13'1413.6
2016-Nov-30 15:33S 22°40' E 166°15'  
2016-Nov-27 23:29S 37°31' E 176°11'9 8.6
2016-Nov-27 22:28S 37°40' E 176°11'0 0.0
2016-Nov-27 21:31S 37°40' E 176°11'0 0.0
2016-Nov-27 20:28S 37°40' E 176°11'0 0.0
2016-Nov-27 19:31S 37°40' E 176°11'0 0.0
2016-Nov-27 18:32S 37°40' E 176°11'0 0.0
2016-Nov-27 17:27S 37°40' E 176°11'0 0.0
2016-Nov-27 16:25S 37°40' E 176°11'0 0.0
2016-Nov-27 15:32S 37°40' E 176°11'0 0.0
2016-Nov-27 14:07S 37°40' E 176°11'0 0.0
2016-Nov-27 13:22S 37°40' E 176°11'0 0.0
2016-Nov-27 12:25S 37°40' E 176°11'0 0.0
2016-Nov-27 11:28S 37°40' E 176°11'0 0.0
2016-Nov-27 10:10S 37°40' E 176°11'0 0.0
2016-Nov-27 09:31S 37°40' E 176°11'0 0.0
2016-Nov-27 08:31S 37°40' E 176°11'0 0.0
2016-Nov-27 07:31S 37°40' E 176°11'0 0.0
2016-Nov-27 06:28S 37°40' E 176°11'0 0.0
2016-Nov-27 05:25S 37°40' E 176°11'0 0.0
2016-Nov-27 04:31S 37°40' E 176°11'0 0.0
2016-Nov-27 03:28S 37°40' E 176°11'0 0.0
2016-Nov-27 02:31S 37°40' E 176°11'0 0.0
2016-Nov-27 01:26S 37°40' E 176°11'0 0.0
2016-Nov-27 00:32S 37°40' E 176°11'0 0.0
2016-Nov-26 23:31S 37°40' E 176°11'2 2.4
2016-Nov-26 22:33S 37°37' E 176°10'  
Track history (hours):
 
Tides and Currents Weather Stations Pressure Air Temp Water Temp Dewpoint Dewpoint Depression Visibility Wind Speed Wind Dir Waves Ship Positions

CSAV Loncomilla

Last reported at 2016-Dec-01 05:29 UTC. Time now 2016-Dec-03 11:43 UTC.
Position S 22°19' E 166°04'.

Length 261 m; draft 10.3 m.

Type: Ship (hazmat cat A). MMSI: 477207400.

Date/timePositionNaut miles runAvg speedWind from/ knotsBaromVisibWave heightAir tempDewpointWater temp
2016-Dec-01 05:29S 22°19' E 166°04'1212.7
2016-Dec-01 04:33S 22°20' E 166°17'9 9.4
2016-Dec-01 03:34S 22°16' E 166°26'0 0.2
2016-Dec-01 02:31S 22°16' E 166°26'0 0.0
2016-Dec-01 01:31S 22°16' E 166°26'0 0.0
2016-Dec-01 00:31S 22°16' E 166°26'0 0.0
2016-Nov-30 23:31S 22°16' E 166°26'0 0.0
2016-Nov-30 22:31S 22°16' E 166°26'0 0.0
2016-Nov-30 21:31S 22°16' E 166°26'0 0.0
2016-Nov-30 20:31S 22°16' E 166°26'0 0.0
2016-Nov-30 19:31S 22°16' E 166°26'0 0.0
2016-Nov-30 18:31S 22°16' E 166°26'8 7.9
2016-Nov-30 17:33S 22°17' E 166°18'1110.9
2016-Nov-30 16:33S 22°27' E 166°13'1413.6
2016-Nov-30 15:33S 22°40' E 166°15'  
2016-Nov-27 23:29S 37°31' E 176°11'9 8.6
2016-Nov-27 22:28S 37°40' E 176°11'0 0.0
2016-Nov-27 21:31S 37°40' E 176°11'0 0.0
2016-Nov-27 20:28S 37°40' E 176°11'0 0.0
2016-Nov-27 19:31S 37°40' E 176°11'0 0.0
2016-Nov-27 18:32S 37°40' E 176°11'0 0.0
2016-Nov-27 17:27S 37°40' E 176°11'0 0.0
2016-Nov-27 16:25S 37°40' E 176°11'0 0.0
2016-Nov-27 15:32S 37°40' E 176°11'0 0.0
2016-Nov-27 14:07S 37°40' E 176°11'0 0.0
2016-Nov-27 13:22S 37°40' E 176°11'0 0.0
2016-Nov-27 12:25S 37°40' E 176°11'0 0.0
2016-Nov-27 11:28S 37°40' E 176°11'0 0.0
2016-Nov-27 10:10S 37°40' E 176°11'0 0.0
2016-Nov-27 09:31S 37°40' E 176°11'0 0.0
2016-Nov-27 08:31S 37°40' E 176°11'0 0.0
2016-Nov-27 07:31S 37°40' E 176°11'0 0.0
2016-Nov-27 06:28S 37°40' E 176°11'0 0.0
2016-Nov-27 05:25S 37°40' E 176°11'0 0.0
2016-Nov-27 04:31S 37°40' E 176°11'0 0.0
2016-Nov-27 03:28S 37°40' E 176°11'0 0.0
2016-Nov-27 02:31S 37°40' E 176°11'0 0.0
2016-Nov-27 01:26S 37°40' E 176°11'0 0.0
2016-Nov-27 00:32S 37°40' E 176°11'0 0.0
2016-Nov-26 23:31S 37°40' E 176°11'2 2.4
2016-Nov-26 22:33S 37°37' E 176°10'  

Dump ship's entire track history